Time;durP1;ratioP1;P1;durP2;ratioP2;P2;SDS_P1;SDS_P2;PMS_P1;PMS_P2;Temp;Humidity;BMP_temperature;BMP_pressure;BME280_temperature;BME280_humidity;BME280_pressure;Samples;Min_cycle;Max_cycle;Signal;HPM_P1;HPM_P2
2023/07/27 00:00:53;;;;;;;7.00;2.17;;;15.70;99.90;;;;;;5094494;28;20407;-67
2023/07/27 00:03:19;;;;;;;6.57;2.70;;;15.70;99.90;;;;;;5093404;28;20102;-67
2023/07/27 00:05:45;;;;;;;4.40;2.40;;;15.70;99.90;;;;;;5093971;28;20027;-82
2023/07/27 00:08:11;;;;;;;9.30;2.78;;;15.60;99.90;;;;;;5094059;28;20020;-67
2023/07/27 00:10:36;;;;;;;4.90;2.03;;;15.50;99.90;;;;;;5094109;28;20092;-67
2023/07/27 00:13:02;;;;;;;3.30;2.20;;;15.50;99.90;;;;;;5094128;28;20085;-67
2023/07/27 00:15:28;;;;;;;6.05;1.70;;;15.50;99.90;;;;;;5093902;28;20024;-67
2023/07/27 00:17:55;;;;;;;4.43;2.20;;;15.50;99.90;;;;;;5094159;28;20103;-67
2023/07/27 00:20:20;;;;;;;2.72;2.05;;;15.50;99.90;;;;;;5094363;28;20069;-67
2023/07/27 00:22:46;;;;;;;4.80;2.60;;;15.40;99.90;;;;;;5095136;28;20036;-71
2023/07/27 00:25:12;;;;;;;4.40;2.10;;;15.30;99.90;;;;;;5092624;28;20027;-67
2023/07/27 00:27:38;;;;;;;4.33;1.90;;;15.40;99.90;;;;;;5094552;28;20024;-67
2023/07/27 00:30:04;;;;;;;6.13;2.20;;;15.30;99.90;;;;;;5096280;28;20019;-66
2023/07/27 00:32:30;;;;;;;5.75;2.28;;;15.40;99.90;;;;;;5094997;28;20031;-67
2023/07/27 00:34:55;;;;;;;4.40;1.90;;;15.40;99.90;;;;;;5095053;28;20334;-67
2023/07/27 00:37:21;;;;;;;5.77;2.50;;;15.50;99.90;;;;;;5093870;28;20139;-67
2023/07/27 00:39:47;;;;;;;4.43;2.87;;;15.50;99.90;;;;;;5093534;28;20028;-67
2023/07/27 00:42:12;;;;;;;4.80;2.60;;;15.60;99.90;;;;;;5093977;28;20024;-67
2023/07/27 00:44:38;;;;;;;5.17;2.63;;;15.70;99.90;;;;;;5094237;28;20035;-67
2023/07/27 00:47:05;;;;;;;7.20;2.60;;;15.80;99.90;;;;;;5092993;28;20020;-68
2023/07/27 00:49:30;;;;;;;;;;;15.80;99.90;;;;;;5093517;28;20020;-87
2023/07/27 00:51:57;;;;;;;6.40;2.47;;;15.80;99.90;;;;;;5076220;28;19919;-67
2023/07/27 00:54:24;;;;;;;3.35;2.55;;;15.80;99.90;;;;;;5094938;28;20551;-67
2023/07/27 00:56:50;;;;;;;5.35;2.40;;;15.70;99.90;;;;;;5094436;28;20459;-66
2023/07/27 00:59:16;;;;;;;5.83;2.97;;;15.80;99.90;;;;;;5094212;28;20044;-95
2023/07/27 01:01:41;;;;;;;6.90;3.10;;;15.80;99.90;;;;;;5092552;28;20511;-66
2023/07/27 01:04:07;;;;;;;6.60;3.83;;;15.70;99.90;;;;;;5094301;28;20067;-67
2023/07/27 01:06:34;;;;;;;8.07;3.73;;;15.70;99.90;;;;;;5092736;28;20407;-67
2023/07/27 01:09:01;;;;;;;7.70;3.38;;;15.60;99.90;;;;;;5093607;28;20016;-67
2023/07/27 01:11:45;;;;;;;;;;;15.60;99.90;;;;;;5092263;28;20063;-67
2023/07/27 01:14:27;;;;;;;7.00;3.70;;;15.50;99.90;;;;;;5086675;28;19908;-68
2023/07/27 01:17:46;;;;;;;6.85;3.60;;;15.50;99.90;;;;;;5092504;28;20105;-67
2023/07/27 01:20:33;;;;;;;6.50;3.67;;;15.40;99.90;;;;;;5051700;28;20398;-66
2023/07/27 01:23:25;;;;;;;9.38;3.92;;;15.40;99.90;;;;;;5094705;28;20020;-68
2023/07/27 01:26:28;;;;;;;6.68;3.60;;;15.30;99.90;;;;;;5085268;28;20028;-67
2023/07/27 01:29:12;;;;;;;9.13;4.05;;;15.30;99.90;;;;;;5093482;28;20020;-68
2023/07/27 01:31:41;;;;;;;6.90;3.28;;;15.30;99.90;;;;;;5088779;28;20060;-67
2023/07/27 01:34:14;;;;;;;5.25;3.28;;;15.30;99.90;;;;;;5094607;28;20419;-68
2023/07/27 01:36:41;;;;;;;8.95;4.55;;;15.30;99.90;;;;;;5094265;28;20106;-68
2023/07/27 01:39:09;;;;;;;7.22;3.83;;;15.30;99.90;;;;;;5093832;28;20042;-67
2023/07/27 01:41:37;;;;;;;9.68;4.00;;;15.20;99.90;;;;;;5094631;28;20385;-68
2023/07/27 01:44:05;;;;;;;4.63;3.10;;;15.20;99.90;;;;;;5093995;28;20112;-68
2023/07/27 01:46:31;;;;;;;9.38;3.58;;;15.20;99.90;;;;;;5094688;28;20063;-68
2023/07/27 01:48:59;;;;;;;5.75;3.08;;;15.20;99.90;;;;;;5093103;28;20030;-68
2023/07/27 01:51:26;;;;;;;7.57;3.92;;;15.20;99.90;;;;;;5091412;28;20082;-83
2023/07/27 01:53:54;;;;;;;15.00;3.13;;;15.30;99.90;;;;;;5091980;28;20115;-67
2023/07/27 01:56:21;;;;;;;7.72;3.13;;;15.30;99.90;;;;;;5087816;28;20051;-67
2023/07/27 01:58:47;;;;;;;;;;;15.20;99.90;;;;;;5094262;28;20035;-67
2023/07/27 02:01:13;;;;;;;5.13;2.88;;;15.20;99.90;;;;;;5091580;28;19908;-66
2023/07/27 02:03:38;;;;;;;6.30;3.37;;;15.20;99.90;;;;;;5092627;28;20486;-66
2023/07/27 02:06:04;;;;;;;8.17;4.03;;;15.20;99.90;;;;;;5090623;28;20052;-66
2023/07/27 02:08:30;;;;;;;4.23;2.97;;;15.20;99.90;;;;;;5093893;28;20039;-66
2023/07/27 02:11:03;;;;;;;7.10;2.97;;;15.20;99.90;;;;;;5075788;28;20441;-66
2023/07/27 02:13:35;;;;;;;6.43;3.15;;;15.20;99.90;;;;;;5061678;28;20306;-66
2023/07/27 02:16:44;;;;;;;4.88;2.50;;;15.20;99.90;;;;;;5093098;28;20051;-66
2023/07/27 02:19:13;;;;;;;2.88;2.05;;;15.10;99.90;;;;;;5078420;28;20427;-90
2023/07/27 02:21:40;;;;;;;4.18;2.60;;;15.10;99.90;;;;;;5091077;28;20066;-66
2023/07/27 02:24:06;;;;;;;4.07;2.10;;;15.10;99.90;;;;;;5096923;28;20139;-66
2023/07/27 02:26:32;;;;;;;4.47;2.35;;;15.10;99.90;;;;;;5096145;28;20023;-66
2023/07/27 02:28:58;;;;;;;3.80;2.23;;;15.10;99.90;;;;;;5090563;28;20047;-66
2023/07/27 02:31:24;;;;;;;3.70;2.30;;;15.00;99.90;;;;;;5097653;28;20058;-66
2023/07/27 02:33:50;;;;;;;4.20;2.40;;;15.00;99.90;;;;;;5096905;28;20020;-66
2023/07/27 02:36:15;;;;;;;6.47;2.77;;;15.00;99.90;;;;;;5097383;28;20235;-82
2023/07/27 02:38:41;;;;;;;4.20;2.33;;;15.00;99.90;;;;;;5095768;28;20021;-66
2023/07/27 02:41:10;;;;;;;3.63;2.10;;;15.00;99.90;;;;;;5097136;28;20016;-66
2023/07/27 02:43:36;;;;;;;4.40;1.92;;;15.00;99.90;;;;;;5096896;28;20031;-66
2023/07/27 02:46:04;;;;;;;3.97;2.15;;;14.90;99.90;;;;;;5092021;28;20430;-67
2023/07/27 02:48:30;;;;;;;4.15;2.55;;;14.80;99.90;;;;;;5096526;28;20035;-67
2023/07/27 02:50:55;;;;;;;5.55;2.15;;;14.80;99.90;;;;;;5096460;28;20024;-66
2023/07/27 02:53:22;;;;;;;4.43;2.43;;;14.80;99.90;;;;;;5095477;28;20112;-80
2023/07/27 02:56:00;;;;;;;5.22;2.58;;;14.80;99.90;;;;;;5095428;28;20028;-66
2023/07/27 02:58:27;;;;;;;5.93;2.55;;;14.70;99.90;;;;;;5086726;28;21087;-67
2023/07/27 03:00:58;;;;;;;5.05;2.13;;;14.70;99.90;;;;;;5094582;28;20024;-66
2023/07/27 03:03:25;;;;;;;3.80;1.88;;;14.70;99.90;;;;;;5095867;28;20160;-67
2023/07/27 03:06:02;;;;;;;3.72;2.00;;;14.60;99.90;;;;;;5096240;28;20032;-67
2023/07/27 03:08:29;;;;;;;3.53;1.88;;;14.50;99.90;;;;;;5096159;28;20032;-68
2023/07/27 03:10:59;;;;;;;1.13;1.00;;;14.50;99.90;;;;;;5097186;28;20024;-67
2023/07/27 03:13:25;;;;;;;3.15;1.63;;;14.50;99.90;;;;;;5096046;28;20040;-67
2023/07/27 03:15:50;;;;;;;3.60;1.93;;;14.40;99.90;;;;;;5095479;28;20036;-68
2023/07/27 03:18:17;;;;;;;3.80;1.97;;;14.40;99.90;;;;;;5094964;28;20047;-67
2023/07/27 03:20:43;;;;;;;;;;;14.30;99.90;;;;;;5101451;28;20031;-67
2023/07/27 03:23:09;;;;;;;3.92;1.85;;;14.30;99.90;;;;;;5097962;28;20221;-66
2023/07/27 03:25:37;;;;;;;4.53;1.30;;;14.30;99.90;;;;;;5091730;28;20049;-67
2023/07/27 03:28:05;;;;;;;2.00;1.50;;;14.30;99.90;;;;;;5096560;28;20016;-67
2023/07/27 03:30:31;;;;;;;2.60;1.50;;;14.30;99.90;;;;;;5094983;28;20024;-67
2023/07/27 03:32:57;;;;;;;3.83;2.10;;;14.30;99.90;;;;;;5096813;28;20028;-69
2023/07/27 03:35:23;;;;;;;3.50;1.60;;;14.30;99.90;;;;;;5073778;28;20032;-66
2023/07/27 03:37:50;;;;;;;5.17;1.80;;;14.30;99.90;;;;;;5096924;28;20328;-67
2023/07/27 03:40:16;;;;;;;4.30;2.33;;;14.30;99.90;;;;;;5096045;28;20024;-67
2023/07/27 03:42:42;;;;;;;4.40;2.17;;;14.30;99.90;;;;;;5096057;28;20035;-68
2023/07/27 03:45:08;;;;;;;1.90;1.43;;;14.30;99.90;;;;;;5096027;28;20261;-66
2023/07/27 03:47:34;;;;;;;2.83;1.58;;;14.30;99.90;;;;;;5096499;28;20072;-67
2023/07/27 03:49:59;;;;;;;1.93;1.50;;;14.30;99.90;;;;;;5096426;28;20412;-67
2023/07/27 03:52:25;;;;;;;3.90;1.73;;;14.30;99.90;;;;;;5094621;28;20035;-66
2023/07/27 03:54:51;;;;;;;2.77;1.67;;;14.30;99.90;;;;;;5092537;28;20040;-68
2023/07/27 03:57:16;;;;;;;3.77;2.00;;;14.30;99.90;;;;;;5093211;28;20087;-70
2023/07/27 03:59:42;;;;;;;2.27;1.37;;;14.30;99.90;;;;;;5094686;28;20036;-68
2023/07/27 04:02:08;;;;;;;4.00;1.67;;;14.30;99.90;;;;;;5094803;28;20024;-67
2023/07/27 04:04:33;;;;;;;2.93;1.73;;;14.30;99.90;;;;;;5093194;28;20035;-66
2023/07/27 04:06:59;;;;;;;2.77;1.67;;;14.30;99.90;;;;;;5095719;28;20023;-77
2023/07/27 04:09:25;;;;;;;4.27;1.73;;;14.40;99.90;;;;;;5094942;28;20024;-67
2023/07/27 04:11:52;;;;;;;3.33;1.90;;;14.30;99.90;;;;;;5094658;28;20028;-67
2023/07/27 04:14:17;;;;;;;5.30;2.40;;;14.40;99.90;;;;;;5076384;28;20039;-67
2023/07/27 04:16:43;;;;;;;4.90;2.00;;;14.40;99.90;;;;;;5094259;28;20047;-82
2023/07/27 04:19:09;;;;;;;4.03;2.10;;;14.40;99.90;;;;;;5094378;28;20028;-67
2023/07/27 04:21:34;;;;;;;3.00;2.10;;;14.40;99.90;;;;;;5092133;28;20040;-67
2023/07/27 04:24:01;;;;;;;4.20;2.23;;;14.40;99.90;;;;;;5094025;28;20410;-67
2023/07/27 04:26:27;;;;;;;2.95;2.10;;;14.40;99.90;;;;;;5093694;28;20111;-68
2023/07/27 04:28:53;;;;;;;4.13;2.30;;;14.50;99.90;;;;;;5093922;28;20107;-67
2023/07/27 04:31:18;;;;;;;5.23;2.77;;;14.60;99.90;;;;;;5093065;28;20093;-68
2023/07/27 04:33:44;;;;;;;4.30;2.93;;;14.50;99.90;;;;;;5076992;28;20054;-90
2023/07/27 04:36:10;;;;;;;6.23;2.83;;;14.60;99.90;;;;;;5094442;28;20042;-67
2023/07/27 04:38:36;;;;;;;7.47;3.00;;;14.60;99.90;;;;;;5090284;28;20270;-67
2023/07/27 04:41:01;;;;;;;4.93;3.00;;;14.60;99.90;;;;;;5090534;28;20020;-68
2023/07/27 04:43:27;;;;;;;5.43;3.13;;;14.60;99.90;;;;;;5092503;28;20027;-68
2023/07/27 04:45:53;;;;;;;4.20;2.83;;;14.50;99.90;;;;;;5074290;28;20402;-67
2023/07/27 04:48:18;;;;;;;4.43;2.70;;;14.60;99.90;;;;;;5091298;28;20073;-68
2023/07/27 04:50:44;;;;;;;9.10;2.97;;;14.60;99.90;;;;;;5089437;28;20028;-85
2023/07/27 04:53:10;;;;;;;5.90;3.40;;;14.60;99.90;;;;;;5088444;28;20024;-68
2023/07/27 04:55:35;;;;;;;5.27;3.00;;;14.60;99.90;;;;;;5085123;28;20016;-68
2023/07/27 04:58:01;;;;;;;5.90;2.90;;;14.60;99.90;;;;;;5084369;28;20461;-68
2023/07/27 05:00:26;;;;;;;3.90;2.57;;;14.60;99.90;;;;;;5086656;28;20078;-68
2023/07/27 05:02:52;;;;;;;6.00;3.20;;;14.60;99.90;;;;;;5093286;28;20028;-68
2023/07/27 05:05:18;;;;;;;8.73;3.70;;;14.60;99.90;;;;;;5089766;28;20387;-68
2023/07/27 05:07:44;;;;;;;8.87;3.40;;;14.60;99.90;;;;;;5088001;28;20025;-68
2023/07/27 05:10:10;;;;;;;7.55;3.50;;;14.60;99.90;;;;;;5086903;28;20039;-68
2023/07/27 05:12:35;;;;;;;8.10;3.50;;;14.60;99.90;;;;;;5074002;28;20310;-68
2023/07/27 05:15:01;;;;;;;7.37;4.20;;;14.70;99.90;;;;;;5084088;28;20031;-69
2023/07/27 05:17:27;;;;;;;8.53;4.50;;;14.60;99.90;;;;;;5086222;28;20421;-68
2023/07/27 05:19:56;;;;;;;6.60;3.63;;;14.70;99.90;;;;;;5072817;28;20051;-68
2023/07/27 05:22:21;;;;;;;10.90;4.28;;;14.70;99.90;;;;;;5085069;28;20077;-69
2023/07/27 05:24:47;;;;;;;7.57;4.10;;;14.70;99.90;;;;;;5089090;28;20345;-68
2023/07/27 05:27:13;;;;;;;6.43;3.93;;;14.70;99.90;;;;;;5082053;28;20024;-67
2023/07/27 05:29:38;;;;;;;9.23;4.63;;;14.70;99.90;;;;;;5082378;28;20017;-68
2023/07/27 05:32:05;;;;;;;7.43;4.40;;;14.70;99.90;;;;;;5086973;28;20020;-68
2023/07/27 05:34:32;;;;;;;7.60;4.95;;;14.70;99.90;;;;;;5080157;28;20106;-67
2023/07/27 05:36:57;;;;;;;;;;;14.70;99.90;;;;;;5070164;28;20040;-68
2023/07/27 05:39:23;;;;;;;6.90;4.33;;;14.70;99.90;;;;;;5094839;28;19911;-67
2023/07/27 05:41:48;;;;;;;9.23;4.53;;;14.70;99.90;;;;;;5093537;28;20082;-67
2023/07/27 05:44:14;;;;;;;7.73;4.63;;;14.70;99.90;;;;;;5092920;28;20035;-87
2023/07/27 05:46:40;;;;;;;6.50;4.67;;;14.70;99.90;;;;;;5093688;28;20119;-68
2023/07/27 05:49:06;;;;;;;6.40;3.53;;;14.70;99.90;;;;;;5094242;28;20039;-68
2023/07/27 05:51:31;;;;;;;5.67;3.73;;;14.80;99.90;;;;;;5091627;28;20032;-69
2023/07/27 05:53:57;;;;;;;5.20;3.30;;;14.80;99.90;;;;;;5099421;28;20035;-68
2023/07/27 05:56:23;;;;;;;8.63;4.10;;;14.80;99.90;;;;;;5101092;28;20081;-68
2023/07/27 05:58:48;;;;;;;4.57;2.87;;;14.80;99.90;;;;;;5100936;28;20043;-68
2023/07/27 06:01:16;;;;;;;7.73;4.07;;;14.80;99.90;;;;;;5082963;28;20169;-84
2023/07/27 06:03:42;;;;;;;4.93;3.20;;;14.90;99.90;;;;;;5099972;28;20055;-68
2023/07/27 06:06:08;;;;;;;6.47;2.87;;;15.00;99.90;;;;;;5098177;28;20101;-68
2023/07/27 06:08:33;;;;;;;4.97;2.37;;;15.00;99.90;;;;;;5101597;28;20257;-68
2023/07/27 06:11:04;;;;;;;3.83;1.93;;;15.00;99.90;;;;;;5087404;28;20024;-69
2023/07/27 06:13:31;;;;;;;3.88;2.03;;;15.10;99.90;;;;;;5100890;28;20403;-69
2023/07/27 06:15:56;;;;;;;;;;;15.10;99.90;;;;;;5101328;28;20032;-68
2023/07/27 06:18:22;;;;;;;3.08;1.60;;;15.20;99.90;;;;;;5100750;28;19904;-77
2023/07/27 06:20:48;;;;;;;2.10;1.73;;;15.20;99.90;;;;;;5101070;28;20089;-68
2023/07/27 06:23:14;;;;;;;4.75;1.67;;;15.30;99.90;;;;;;5099432;28;20052;-68
2023/07/27 06:25:44;;;;;;;6.90;1.50;;;15.40;99.90;;;;;;5099103;28;20056;-68
2023/07/27 06:28:10;;;;;;;2.22;1.73;;;15.50;99.90;;;;;;5097100;28;20025;-68
2023/07/27 06:30:37;;;;;;;2.50;1.70;;;15.50;99.90;;;;;;5098359;28;20431;-67
2023/07/27 06:33:03;;;;;;;2.83;1.58;;;15.60;99.90;;;;;;5099945;28;20036;-67
2023/07/27 06:35:29;;;;;;;2.30;1.50;;;15.70;99.90;;;;;;5100214;28;20288;-67
2023/07/27 06:37:54;;;;;;;2.80;1.70;;;15.70;99.90;;;;;;5100113;28;20038;-68
2023/07/27 06:40:20;;;;;;;2.00;1.83;;;15.70;99.90;;;;;;5099597;28;20058;-67
2023/07/27 06:42:46;;;;;;;2.33;1.53;;;15.80;99.90;;;;;;5101249;28;20032;-79
2023/07/27 06:45:11;;;;;;;2.63;1.50;;;15.80;99.90;;;;;;5099198;28;20024;-68
2023/07/27 06:47:37;;;;;;;4.33;1.73;;;15.80;99.90;;;;;;5100242;28;20038;-68
2023/07/27 06:50:04;;;;;;;2.77;1.50;;;15.90;99.90;;;;;;5100243;28;20028;-68
2023/07/27 06:52:29;;;;;;;3.67;1.80;;;15.90;99.90;;;;;;5093645;28;20024;-69
2023/07/27 06:54:55;;;;;;;2.37;1.60;;;16.00;99.90;;;;;;5096296;28;20318;-68
2023/07/27 06:57:24;;;;;;;1.87;1.50;;;16.00;99.90;;;;;;5098842;28;20059;-67
2023/07/27 06:59:50;;;;;;;2.35;1.92;;;16.00;99.90;;;;;;5100467;28;20073;-68
2023/07/27 07:02:16;;;;;;;2.72;1.85;;;16.10;99.90;;;;;;5100156;28;20035;-68
2023/07/27 07:04:43;;;;;;;3.10;2.10;;;16.10;99.90;;;;;;5097397;28;20039;-68
2023/07/27 07:07:10;;;;;;;2.60;1.70;;;16.10;99.90;;;;;;5097070;28;20077;-69
2023/07/27 07:09:36;;;;;;;2.20;1.80;;;16.20;99.90;;;;;;5096410;28;20017;-86
2023/07/27 07:12:03;;;;;;;2.87;1.90;;;16.20;99.90;;;;;;5091038;28;20103;-70
2023/07/27 07:14:29;;;;;;;2.47;2.00;;;16.30;99.90;;;;;;5095824;28;20031;-70
2023/07/27 07:16:54;;;;;;;2.90;2.17;;;16.30;99.90;;;;;;5103784;28;20032;-69
2023/07/27 07:19:20;;;;;;;3.40;2.17;;;16.40;99.90;;;;;;5079591;28;20024;-70
2023/07/27 07:21:46;;;;;;;1.90;1.80;;;16.40;99.90;;;;;;5096830;28;20457;-69
2023/07/27 07:24:11;;;;;;;3.93;2.00;;;16.50;99.90;;;;;;5096603;28;20028;-68
2023/07/27 07:26:37;;;;;;;2.20;1.57;;;16.50;99.90;;;;;;5096759;28;20024;-71
2023/07/27 07:29:03;;;;;;;3.20;1.70;;;16.60;99.90;;;;;;5096233;28;20095;-69
2023/07/27 07:31:30;;;;;;;2.00;1.80;;;16.60;99.90;;;;;;5097380;28;20024;-69
2023/07/27 07:33:56;;;;;;;4.25;2.03;;;16.70;99.90;;;;;;5072058;28;20057;-68
2023/07/27 07:36:22;;;;;;;2.20;1.67;;;16.80;99.90;;;;;;5096926;28;20107;-69
2023/07/27 07:38:48;;;;;;;1.60;1.47;;;16.90;99.90;;;;;;5096222;28;20111;-69
2023/07/27 07:41:13;;;;;;;2.23;1.50;;;17.00;99.90;;;;;;5090862;28;20013;-69
2023/07/27 07:43:39;;;;;;;2.53;1.87;;;17.10;99.90;;;;;;5091195;28;20020;-68
2023/07/27 07:46:10;;;;;;;1.90;1.60;;;17.10;99.90;;;;;;5096551;28;20023;-68
2023/07/27 07:48:36;;;;;;;2.20;2.00;;;17.20;99.90;;;;;;5096524;28;20090;-69
2023/07/27 07:51:01;;;;;;;2.53;2.33;;;17.20;99.90;;;;;;5086859;28;20033;-68
2023/07/27 07:53:27;;;;;;;5.03;2.63;;;17.20;99.90;;;;;;5096768;28;20031;-69
2023/07/27 07:55:53;;;;;;;3.87;2.97;;;17.20;99.90;;;;;;5084886;28;20479;-68
2023/07/27 07:58:18;;;;;;;2.47;2.20;;;17.30;99.90;;;;;;5096204;28;20052;-68
2023/07/27 08:00:44;;;;;;;2.07;1.87;;;17.40;99.90;;;;;;5095351;28;20081;-68
2023/07/27 08:03:10;;;;;;;6.33;2.17;;;17.50;99.90;;;;;;5095970;28;20052;-68
2023/07/27 08:05:36;;;;;;;1.47;1.37;;;17.50;99.90;;;;;;5096197;28;20040;-68
2023/07/27 08:08:02;;;;;;;2.10;1.48;;;17.50;99.90;;;;;;5095980;28;20038;-68
2023/07/27 08:10:28;;;;;;;1.33;1.23;;;17.60;99.90;;;;;;5077243;28;20030;-69
2023/07/27 08:12:53;;;;;;;2.90;1.37;;;17.70;99.90;;;;;;5096127;28;20059;-70
2023/07/27 08:15:19;;;;;;;1.37;1.23;;;17.80;99.90;;;;;;5095093;28;20410;-68
2023/07/27 08:17:45;;;;;;;1.23;0.90;;;17.80;99.90;;;;;;5078444;28;20031;-69
2023/07/27 08:20:11;;;;;;;2.73;1.57;;;17.80;99.90;;;;;;5094823;28;20322;-69
2023/07/27 08:22:37;;;;;;;3.42;0.80;;;17.90;99.90;;;;;;5096004;28;20036;-69
2023/07/27 08:25:05;;;;;;;2.53;0.88;;;17.90;99.90;;;;;;5095605;28;20372;-68
2023/07/27 08:27:34;;;;;;;2.92;0.75;;;17.90;99.90;;;;;;5095506;28;20017;-69
2023/07/27 08:30:00;;;;;;;0.70;0.50;;;17.90;99.90;;;;;;5089569;28;20051;-68
2023/07/27 08:32:26;;;;;;;1.45;0.73;;;17.90;99.90;;;;;;5081660;28;20227;-67
2023/07/27 08:34:52;;;;;;;0.80;0.63;;;17.90;99.90;;;;;;5095884;28;20300;-84
2023/07/27 08:37:17;;;;;;;2.13;0.80;;;17.90;99.90;;;;;;5095093;28;20069;-68
2023/07/27 08:39:43;;;;;;;1.33;0.70;;;18.00;99.90;;;;;;5094344;28;20031;-69
2023/07/27 08:42:14;;;;;;;1.02;0.70;;;18.00;99.90;;;;;;5093276;28;20024;-68
2023/07/27 08:44:43;;;;;;;1.33;1.00;;;18.10;99.90;;;;;;5099862;28;20058;-70
2023/07/27 08:47:10;;;;;;;1.52;0.90;;;18.20;99.90;;;;;;5094659;28;20099;-69
2023/07/27 08:49:36;;;;;;;1.65;0.63;;;18.20;99.90;;;;;;5095246;28;20012;-69
2023/07/27 08:52:02;;;;;;;1.08;0.70;;;18.10;99.90;;;;;;5095077;28;20024;-68
2023/07/27 08:54:29;;;;;;;3.78;1.30;;;18.10;99.90;;;;;;5096433;28;20515;-69
2023/07/27 08:56:55;;;;;;;1.30;0.90;;;18.00;99.90;;;;;;5095354;28;20062;-68
2023/07/27 08:59:24;;;;;;;5.13;1.00;;;18.00;99.90;;;;;;5094390;28;20506;-68
2023/07/27 09:01:53;;;;;;;4.32;0.65;;;18.00;99.90;;;;;;5076676;28;20028;-69
2023/07/27 09:04:18;;;;;;;3.67;0.60;;;18.00;99.90;;;;;;5094286;28;20036;-69
2023/07/27 09:06:46;;;;;;;3.60;0.90;;;18.00;99.90;;;;;;5094965;28;20069;-68
2023/07/27 09:09:17;;;;;;;1.67;0.93;;;17.90;99.90;;;;;;5094240;28;20016;-69
2023/07/27 09:11:43;;;;;;;3.75;0.95;;;18.00;99.90;;;;;;5094993;28;20069;-68
2023/07/27 09:14:09;;;;;;;3.13;0.73;;;18.00;99.90;;;;;;5091318;28;20042;-68
2023/07/27 09:16:36;;;;;;;1.25;0.55;;;18.00;99.90;;;;;;5076127;28;20119;-77
2023/07/27 09:19:04;;;;;;;1.48;1.05;;;18.10;99.90;;;;;;5093434;28;20414;-68
2023/07/27 09:21:44;;;;;;;4.75;1.23;;;18.10;99.90;;;;;;5081387;28;20035;-68
2023/07/27 09:24:11;;;;;;;1.92;1.25;;;18.10;99.90;;;;;;5103341;28;20020;-68
2023/07/27 09:26:55;;;;;;;1.15;0.95;;;18.20;99.90;;;;;;5099066;28;20398;-68
2023/07/27 09:29:21;;;;;;;1.95;0.77;;;18.20;99.90;;;;;;5092820;28;20107;-77
2023/07/27 09:31:52;;;;;;;0.82;0.65;;;18.20;99.90;;;;;;5093218;28;20387;-68
2023/07/27 09:34:19;;;;;;;1.70;1.00;;;18.10;99.90;;;;;;5080716;28;20032;-67
2023/07/27 09:36:46;;;;;;;4.00;0.95;;;18.10;99.90;;;;;;5090619;28;20034;-67
2023/07/27 09:39:13;;;;;;;;;;;18.10;99.90;;;;;;5101390;28;20024;-67
2023/07/27 09:41:43;;;;;;;2.60;0.80;;;18.10;99.90;;;;;;5076670;28;19957;-67
2023/07/27 09:44:16;;;;;;;3.35;1.20;;;18.10;99.90;;;;;;5090320;28;20063;-68
2023/07/27 09:46:42;;;;;;;0.77;0.68;;;18.10;99.90;;;;;;5089894;28;20109;-68
2023/07/27 09:49:08;;;;;;;1.27;0.73;;;18.10;99.90;;;;;;5088936;28;20034;-68
2023/07/27 09:51:35;;;;;;;0.88;0.70;;;18.20;99.90;;;;;;5090139;28;20024;-68
2023/07/27 09:54:01;;;;;;;1.10;0.75;;;18.20;99.90;;;;;;5089447;28;20031;-68
2023/07/27 09:56:28;;;;;;;0.75;0.73;;;18.30;99.90;;;;;;5088930;28;20149;-69
2023/07/27 09:58:55;;;;;;;1.15;0.73;;;18.40;99.90;;;;;;5089175;28;20071;-70
2023/07/27 10:01:21;;;;;;;2.60;0.90;;;18.50;99.90;;;;;;5089977;28;20071;-85
2023/07/27 10:03:46;;;;;;;1.50;0.70;;;18.60;99.90;;;;;;5071985;28;20028;-70
2023/07/27 10:06:17;;;;;;;4.43;1.10;;;18.60;99.90;;;;;;5087722;28;20273;-70
2023/07/27 10:08:43;;;;;;;1.67;0.90;;;18.60;99.90;;;;;;5088422;28;20409;-69
2023/07/27 10:11:09;;;;;;;0.85;0.77;;;18.70;99.90;;;;;;5089379;28;20039;-71
2023/07/27 10:13:37;;;;;;;2.63;0.93;;;18.70;99.90;;;;;;5089197;28;20058;-69
2023/07/27 10:16:09;;;;;;;1.40;1.20;;;18.70;99.90;;;;;;5090073;28;20043;-69
2023/07/27 10:18:42;;;;;;;2.65;0.80;;;18.70;99.90;;;;;;5070278;28;20035;-84
2023/07/27 10:21:28;;;;;;;1.85;0.90;;;18.70;99.90;;;;;;5089293;28;20028;-68
2023/07/27 10:23:59;;;;;;;3.13;0.80;;;18.80;99.90;;;;;;5093683;28;20052;-70
2023/07/27 10:26:40;;;;;;;2.40;0.90;;;18.70;99.90;;;;;;5093218;28;20263;-70
2023/07/27 10:29:23;;;;;;;2.10;0.80;;;18.70;99.90;;;;;;5093319;28;20020;-79
2023/07/27 10:32:04;;;;;;;0.85;0.52;;;18.80;99.90;;;;;;5093652;28;20016;-70
2023/07/27 10:34:31;;;;;;;1.30;0.73;;;18.80;99.90;;;;;;5093929;28;20032;-71
2023/07/27 10:37:02;;;;;;;0.82;0.50;;;18.90;99.90;;;;;;5091178;28;20038;-70
2023/07/27 10:39:46;;;;;;;1.20;0.98;;;19.00;99.90;;;;;;5096694;28;20016;-69
2023/07/27 10:42:23;;;;;;;1.83;0.90;;;19.10;99.90;;;;;;5093973;28;20036;-70
2023/07/27 10:44:52;;;;;;;2.13;0.55;;;19.20;99.90;;;;;;5098027;28;20028;-70
2023/07/27 10:47:38;;;;;;;0.80;0.80;;;19.20;99.90;;;;;;5096137;28;20374;-70
2023/07/27 10:50:04;;;;;;;0.68;0.55;;;19.20;99.90;;;;;;5097824;28;20020;-71
2023/07/27 10:52:34;;;;;;;0.70;0.60;;;19.10;99.90;;;;;;5097046;28;20017;-81
2023/07/27 10:55:02;;;;;;;0.55;0.55;;;19.10;99.90;;;;;;5077490;28;20085;-69
2023/07/27 10:57:30;;;;;;;0.80;0.80;;;19.10;99.90;;;;;;5102484;28;20080;-70
2023/07/27 10:59:56;;;;;;;0.80;0.80;;;19.10;99.90;;;;;;5097745;28;20079;-70
2023/07/27 11:02:26;;;;;;;0.63;0.63;;;19.10;99.90;;;;;;5078310;28;20084;-70
2023/07/27 11:04:54;;;;;;;1.42;0.75;;;19.10;99.90;;;;;;5096108;28;20040;-70
2023/07/27 11:07:40;;;;;;;0.57;0.57;;;19.10;99.90;;;;;;5097178;28;20052;-70
2023/07/27 11:10:08;;;;;;;;;;;19.20;99.90;;;;;;5079832;28;20099;-70
2023/07/27 11:12:54;;;;;;;0.70;0.60;;;19.20;99.90;;;;;;5091348;28;20292;-70
2023/07/27 11:15:22;;;;;;;4.32;0.85;;;19.30;99.90;;;;;;5090123;28;20416;-69
2023/07/27 11:17:49;;;;;;;1.52;1.00;;;19.20;99.90;;;;;;5090703;28;20023;-71
2023/07/27 11:20:18;;;;;;;7.28;1.60;;;19.30;99.90;;;;;;5096437;28;20035;-85
2023/07/27 11:22:45;;;;;;;3.05;1.65;;;19.30;99.90;;;;;;5090408;28;20059;-70
2023/07/27 11:25:12;;;;;;;2.33;1.17;;;19.40;99.90;;;;;;5095385;28;20415;-70
2023/07/27 11:27:38;;;;;;;2.08;1.00;;;19.50;99.90;;;;;;5095916;28;20016;-70
2023/07/27 11:30:12;;;;;;;3.03;1.00;;;19.40;99.90;;;;;;5096729;28;20044;-70
2023/07/27 11:32:38;;;;;;;1.40;1.20;;;19.40;99.90;;;;;;5062864;28;20418;-70
2023/07/27 11:35:04;;;;;;;1.15;1.05;;;19.40;99.90;;;;;;5095824;28;20028;-70
2023/07/27 11:37:31;;;;;;;1.50;0.98;;;19.40;99.90;;;;;;5077835;28;20032;-70
2023/07/27 11:39:57;;;;;;;0.73;0.70;;;19.40;99.90;;;;;;5096672;28;20414;-70
2023/07/27 11:42:49;;;;;;;1.77;1.15;;;19.30;99.90;;;;;;5090072;28;20449;-70
2023/07/27 11:45:16;;;;;;;1.13;0.80;;;19.30;99.90;;;;;;5076058;28;20036;-70
2023/07/27 11:47:41;;;;;;;;;;;19.40;99.90;;;;;;5094623;28;20024;-70
2023/07/27 11:50:09;;;;;;;0.90;0.90;;;19.50;99.90;;;;;;5094693;28;19915;-72
2023/07/27 11:52:39;;;;;;;1.77;0.65;;;19.50;99.90;;;;;;5092122;28;20410;-70
2023/07/27 11:55:05;;;;;;;0.65;0.55;;;19.40;99.90;;;;;;5077729;28;20031;-70
2023/07/27 11:57:31;;;;;;;0.60;0.60;;;19.30;99.90;;;;;;5090732;28;20035;-69
2023/07/27 12:00:12;;;;;;;1.77;1.13;;;19.30;99.90;;;;;;5093352;28;20052;-70
2023/07/27 12:02:39;;;;;;;1.67;1.23;;;19.20;99.90;;;;;;5095279;28;20118;-69
2023/07/27 12:05:05;;;;;;;2.55;1.27;;;19.20;99.90;;;;;;5090743;28;20077;-87
2023/07/27 12:07:34;;;;;;;2.88;0.80;;;19.20;99.90;;;;;;5089289;28;20028;-69
2023/07/27 12:10:00;;;;;;;3.72;1.15;;;19.20;99.90;;;;;;5095906;28;20023;-69
2023/07/27 12:12:27;;;;;;;4.07;1.40;;;19.30;99.90;;;;;;5096035;28;20034;-68
2023/07/27 12:14:54;;;;;;;1.55;1.15;;;19.30;99.90;;;;;;5095380;28;20039;-70
2023/07/27 12:17:24;;;;;;;2.20;1.60;;;19.50;99.90;;;;;;5094931;28;20053;-70
2023/07/27 12:19:50;;;;;;;4.47;1.55;;;19.60;99.90;;;;;;5093536;28;20031;-70
2023/07/27 12:22:16;;;;;;;2.53;1.77;;;19.60;99.90;;;;;;5093738;28;20127;-70
2023/07/27 12:24:48;;;;;;;4.70;1.47;;;19.60;99.90;;;;;;5075063;28;20028;-70
2023/07/27 12:27:14;;;;;;;3.80;2.03;;;19.50;99.90;;;;;;5091224;28;20564;-69
2023/07/27 12:29:40;;;;;;;3.07;2.13;;;19.50;99.90;;;;;;5094797;28;20024;-70
2023/07/27 12:32:06;;;;;;;4.30;2.23;;;19.50;99.90;;;;;;5094623;28;20658;-69
2023/07/27 12:34:32;;;;;;;3.08;2.25;;;19.60;99.90;;;;;;5063336;28;20036;-70
2023/07/27 12:36:58;;;;;;;5.05;2.20;;;19.60;99.90;;;;;;5072798;28;20057;-71
2023/07/27 12:39:23;;;;;;;2.63;1.93;;;19.60;99.90;;;;;;5088958;28;20029;-70
2023/07/27 12:41:49;;;;;;;2.67;1.67;;;19.50;99.90;;;;;;5094053;28;20030;-70
2023/07/27 12:44:14;;;;;;;2.33;1.50;;;19.60;99.90;;;;;;5086128;28;20418;-70
2023/07/27 12:46:40;;;;;;;3.67;1.47;;;19.70;99.90;;;;;;5094928;28;20020;-70
2023/07/27 12:49:06;;;;;;;1.30;1.00;;;19.60;99.90;;;;;;5093598;28;20482;-71
2023/07/27 12:51:32;;;;;;;1.40;0.93;;;19.70;99.90;;;;;;5094351;28;20035;-70